createdAt,value
2018-08-30T00:00:19.537Z,19.5
2018-08-30T00:01:29.423Z,19.46
2018-08-30T00:02:39.591Z,19.53
2018-08-30T00:03:49.526Z,19.56
2018-08-30T00:04:59.656Z,19.46
2018-08-30T00:06:09.653Z,19.56
2018-08-30T00:07:19.548Z,19.52
2018-08-30T00:08:29.711Z,19.52
2018-08-30T00:09:39.914Z,19.52
2018-08-30T00:10:50.047Z,19.52
2018-08-30T00:12:00.225Z,19.5
2018-08-30T00:13:10.417Z,19.53
2018-08-30T00:14:20.553Z,19.61
2018-08-30T00:15:30.318Z,19.52
2018-08-30T00:16:40.233Z,19.48
2018-08-30T00:17:50.383Z,19.5
2018-08-30T00:19:00.518Z,19.52
2018-08-30T00:20:10.284Z,19.49
2018-08-30T00:21:20.713Z,19.52
2018-08-30T00:22:31.863Z,19.49
2018-08-30T00:23:41.626Z,19.42
2018-08-30T00:24:51.762Z,19.42
2018-08-30T00:26:01.907Z,19.55
2018-08-30T00:27:12.185Z,19.45
2018-08-30T00:28:23.296Z,19.46
2018-08-30T00:29:33.186Z,19.43
2018-08-30T00:30:43.422Z,19.45
2018-08-30T00:31:53.646Z,19.4
2018-08-30T00:33:03.531Z,19.49
2018-08-30T00:34:13.473Z,19.42
2018-08-30T00:35:23.389Z,19.4
2018-08-30T00:36:33.277Z,19.33
2018-08-30T00:37:43.421Z,19.45
2018-08-30T00:38:53.560Z,19.4
2018-08-30T00:40:03.683Z,19.4
2018-08-30T00:41:13.942Z,19.4
2018-08-30T00:42:24.165Z,19.37
2018-08-30T00:43:34.315Z,19.37
2018-08-30T00:44:44.588Z,19.39
2018-08-30T00:45:54.464Z,19.34
2018-08-30T00:47:04.605Z,19.27
2018-08-30T00:48:15.802Z,19.37
2018-08-30T00:49:25.952Z,19.28
2018-08-30T00:50:36.159Z,19.25
2018-08-30T00:51:46.395Z,19.3
2018-08-30T00:52:56.648Z,19.28
2018-08-30T00:54:06.920Z,19.19
2018-08-30T00:55:17.089Z,19.15
2018-08-30T00:56:27.296Z,19.16
2018-08-30T00:57:37.472Z,19.03
2018-08-30T00:58:47.636Z,19.12
2018-08-30T00:59:57.899Z,19.08
2018-08-30T01:01:08.112Z,18.95
2018-08-30T01:02:17.989Z,19.06
2018-08-30T01:03:28.123Z,19.03
2018-08-30T01:04:38.309Z,19.06
2018-08-30T01:05:48.560Z,18.93
2018-08-30T01:06:58.457Z,18.93
2018-08-30T01:08:08.631Z,18.94
2018-08-30T01:09:18.819Z,18.91
2018-08-30T01:10:29.009Z,18.88
2018-08-30T01:11:38.881Z,18.91
2018-08-30T01:12:48.773Z,18.87
2018-08-30T01:13:58.884Z,18.93
2018-08-30T01:15:09.026Z,18.91
2018-08-30T01:16:18.889Z,18.91
2018-08-30T01:17:29.012Z,18.91
2018-08-30T01:18:39.138Z,18.98
2018-08-30T01:19:49.257Z,18.87
2018-08-30T01:20:59.534Z,18.87
2018-08-30T01:22:09.714Z,18.84
2018-08-30T01:23:19.907Z,18.86
2018-08-30T01:24:30.197Z,18.9
2018-08-30T01:25:40.095Z,18.9
2018-08-30T01:26:50.246Z,18.9
2018-08-30T01:28:00.380Z,18.82
2018-08-30T01:29:10.509Z,18.86
2018-08-30T01:30:20.655Z,18.87
2018-08-30T01:31:30.552Z,18.8
2018-08-30T01:32:40.681Z,18.82
2018-08-30T01:33:50.820Z,18.84
2018-08-30T01:35:00.950Z,18.67
2018-08-30T01:36:10.722Z,18.67
2018-08-30T01:37:20.871Z,18.62
2018-08-30T01:38:30.992Z,18.63
2018-08-30T01:39:42.117Z,18.59
2018-08-30T01:40:51.879Z,18.57
2018-08-30T01:42:02.125Z,18.59
2018-08-30T01:43:11.981Z,18.59
2018-08-30T01:44:22.118Z,18.56
2018-08-30T01:45:32.278Z,18.56
2018-08-30T01:46:42.148Z,18.55
2018-08-30T01:47:52.302Z,18.5
2018-08-30T01:49:02.424Z,18.53
2018-08-30T01:50:12.294Z,18.62
2018-08-30T01:51:23.390Z,18.56
2018-08-30T01:52:33.272Z,18.62
2018-08-30T01:53:43.391Z,18.55
2018-08-30T01:54:53.595Z,18.59
2018-08-30T01:56:03.765Z,18.55
2018-08-30T01:57:13.955Z,18.55
2018-08-30T01:58:24.161Z,18.55
2018-08-30T01:59:34.314Z,18.57
2018-08-30T02:00:44.450Z,18.59
2018-08-30T02:01:54.049Z,18.55
2018-08-30T02:03:04.167Z,18.56
2018-08-30T02:04:14.305Z,18.56
2018-08-30T02:05:24.486Z,18.59
2018-08-30T02:06:34.766Z,18.47
2018-08-30T02:07:44.641Z,18.57
2018-08-30T02:08:54.884Z,18.57
2018-08-30T02:10:05.018Z,18.49
2018-08-30T02:11:15.166Z,18.47
2018-08-30T02:12:25.306Z,18.55
2018-08-30T02:13:35.467Z,18.55
2018-08-30T02:14:45.430Z,18.5
2018-08-30T02:15:55.353Z,18.49
2018-08-30T02:17:05.499Z,18.47
2018-08-30T02:18:15.250Z,18.56
2018-08-30T02:19:25.266Z,18.4
2018-08-30T02:20:35.407Z,18.41
2018-08-30T02:21:45.275Z,18.41
2018-08-30T02:22:55.432Z,18.38
2018-08-30T02:24:05.616Z,18.41
2018-08-30T02:25:16.745Z,18.35
2018-08-30T02:26:26.558Z,18.31
2018-08-30T02:27:36.766Z,18.35
2018-08-30T02:28:47.041Z,18.31
2018-08-30T02:29:57.284Z,18.32
2018-08-30T02:31:07.486Z,18.34
2018-08-30T02:32:17.704Z,18.47
2018-08-30T02:33:27.892Z,18.37
2018-08-30T02:34:38.089Z,18.31
2018-08-30T02:35:48.310Z,18.28
2018-08-30T02:36:58.574Z,18.23
2018-08-30T02:38:08.443Z,18.31
2018-08-30T02:39:18.583Z,18.4
2018-08-30T02:40:28.441Z,18.44
2018-08-30T02:41:38.561Z,18.32
2018-08-30T02:42:48.465Z,18.38
2018-08-30T02:43:58.584Z,18.32
2018-08-30T02:45:08.727Z,18.25
2018-08-30T02:46:18.876Z,18.32
2018-08-30T02:47:29.029Z,18.25
2018-08-30T02:48:39.156Z,18.22
2018-08-30T02:49:49.275Z,18.19
2018-08-30T02:50:59.391Z,18.15
2018-08-30T02:52:09.220Z,18.17
2018-08-30T02:53:19.393Z,18.1
2018-08-30T02:54:29.522Z,18.09
2018-08-30T02:55:39.730Z,18.16
2018-08-30T02:56:49.514Z,18.13
2018-08-30T02:57:59.662Z,18.12
2018-08-30T02:59:09.889Z,18.09
2018-08-30T03:00:20.083Z,18.1
2018-08-30T03:01:30.255Z,18.07
2018-08-30T03:02:40.493Z,18.05
2018-08-30T03:03:50.731Z,18
2018-08-30T03:05:00.950Z,18.01
2018-08-30T03:06:11.281Z,18.01
2018-08-30T03:07:21.446Z,18
2018-08-30T03:08:31.676Z,18.02
2018-08-30T03:09:41.915Z,18
2018-08-30T03:10:51.806Z,18
2018-08-30T03:12:01.966Z,17.95
2018-08-30T03:13:12.296Z,17.98
2018-08-30T03:14:22.345Z,17.89
2018-08-30T03:15:32.524Z,17.92
2018-08-30T03:16:42.676Z,17.83
2018-08-30T03:17:52.799Z,17.77
2018-08-30T03:19:04.179Z,17.72
2018-08-30T03:20:14.361Z,17.65
2018-08-30T03:21:24.536Z,17.58
2018-08-30T03:22:34.746Z,17.49
2018-08-30T03:23:44.907Z,17.42
2018-08-30T03:24:55.054Z,17.42
2018-08-30T03:26:04.920Z,17.27
2018-08-30T03:27:15.296Z,17.36
2018-08-30T03:28:25.494Z,17.21
2018-08-30T03:29:35.363Z,17.23
2018-08-30T03:30:45.915Z,17.11
2018-08-30T03:31:56.619Z,17.06
2018-08-30T03:33:06.758Z,16.96
2018-08-30T03:34:16.942Z,17.02
2018-08-30T03:35:27.054Z,17.04
2018-08-30T03:36:37.176Z,16.98
2018-08-30T03:37:47.359Z,16.98
2018-08-30T03:38:57.501Z,16.84
2018-08-30T03:40:07.855Z,16.82
2018-08-30T03:41:17.787Z,16.83
2018-08-30T03:42:27.936Z,16.75
2018-08-30T03:43:38.062Z,16.71
2018-08-30T03:44:48.192Z,16.75
2018-08-30T03:45:58.348Z,16.65
2018-08-30T03:47:08.883Z,16.82
2018-08-30T03:48:18.894Z,16.75
2018-08-30T03:49:28.778Z,16.75
2018-08-30T03:50:38.687Z,16.66
2018-08-30T03:51:48.913Z,16.76
2018-08-30T03:52:58.795Z,16.8
2018-08-30T03:54:08.913Z,16.83
2018-08-30T03:55:18.657Z,16.83
2018-08-30T03:56:29.094Z,16.83
2018-08-30T03:57:39.241Z,16.74
2018-08-30T03:58:49.382Z,16.82
2018-08-30T03:59:59.520Z,16.84
2018-08-30T04:01:09.726Z,16.83
2018-08-30T04:02:19.987Z,16.72
2018-08-30T04:03:30.160Z,16.74
2018-08-30T04:04:40.420Z,16.76
2018-08-30T04:05:50.542Z,16.83
2018-08-30T04:07:00.365Z,16.83
2018-08-30T04:08:10.482Z,16.83
2018-08-30T04:09:20.707Z,16.83
2018-08-30T04:10:30.489Z,16.75
2018-08-30T04:11:40.673Z,16.8
2018-08-30T04:12:51.195Z,16.79
2018-08-30T04:14:01.327Z,16.84
2018-08-30T04:15:11.476Z,16.83
2018-08-30T04:16:21.337Z,16.8
2018-08-30T04:17:31.507Z,16.74
2018-08-30T04:18:41.637Z,16.84
2018-08-30T04:19:51.770Z,16.84
2018-08-30T04:21:02.986Z,16.76
2018-08-30T04:22:13.614Z,16.8
2018-08-30T04:23:23.782Z,16.83
2018-08-30T04:24:34.000Z,16.83
2018-08-30T04:25:43.875Z,16.75
2018-08-30T04:26:54.062Z,16.83
2018-08-30T04:28:04.348Z,16.69
2018-08-30T04:29:14.537Z,16.82
2018-08-30T04:30:24.685Z,16.76
2018-08-30T04:31:35.112Z,16.68
2018-08-30T04:32:45.190Z,16.66
2018-08-30T04:33:55.328Z,16.71
2018-08-30T04:35:05.506Z,16.64
2018-08-30T04:36:15.646Z,16.61
2018-08-30T04:37:25.604Z,16.57
2018-08-30T04:38:35.846Z,16.64
2018-08-30T04:39:46.024Z,16.61
2018-08-30T04:40:56.296Z,16.62
2018-08-30T04:42:06.178Z,16.66
2018-08-30T04:43:16.491Z,16.68
2018-08-30T04:44:26.602Z,16.68
2018-08-30T04:45:36.490Z,16.82
2018-08-30T04:46:46.619Z,16.75
2018-08-30T04:47:56.736Z,16.76
2018-08-30T04:49:06.315Z,16.79
2018-08-30T04:50:16.886Z,16.74
2018-08-30T04:51:27.316Z,16.74
2018-08-30T04:52:37.593Z,16.71
2018-08-30T04:53:47.802Z,16.74
2018-08-30T04:54:57.696Z,16.71
2018-08-30T04:56:07.845Z,16.74
2018-08-30T04:57:17.985Z,16.69
2018-08-30T04:58:28.124Z,16.72
2018-08-30T04:59:38.398Z,16.71
2018-08-30T05:00:48.206Z,16.8
2018-08-30T05:01:58.547Z,16.86
2018-08-30T05:03:08.667Z,16.86
2018-08-30T05:04:18.827Z,16.89
2018-08-30T05:05:29.131Z,16.87
2018-08-30T05:06:39.289Z,16.87
2018-08-30T05:07:49.530Z,16.87
2018-08-30T05:08:59.794Z,16.9
2018-08-30T05:10:10.374Z,16.87
2018-08-30T05:11:20.772Z,16.82
2018-08-30T05:12:31.112Z,16.89
2018-08-30T05:13:41.229Z,16.84
2018-08-30T05:14:51.168Z,16.79
2018-08-30T05:16:01.299Z,16.75
2018-08-30T05:17:11.120Z,16.74
2018-08-30T05:18:21.022Z,16.68
2018-08-30T05:19:31.149Z,16.74
2018-08-30T05:20:41.318Z,16.75
2018-08-30T05:21:51.428Z,16.66
2018-08-30T05:23:01.760Z,16.79
2018-08-30T05:24:11.969Z,16.75
2018-08-30T05:25:22.276Z,16.82
2018-08-30T05:26:32.156Z,16.69
2018-08-30T05:27:43.012Z,16.74
2018-08-30T05:28:53.136Z,16.75
2018-08-30T05:30:03.439Z,16.68
2018-08-30T05:31:14.279Z,16.71
2018-08-30T05:32:24.517Z,16.68
2018-08-30T05:33:34.653Z,16.69
2018-08-30T05:34:44.818Z,16.69
2018-08-30T05:35:55.206Z,16.54
2018-08-30T05:37:05.352Z,16.54
2018-08-30T05:38:15.472Z,16.64
2018-08-30T05:39:25.208Z,16.57
2018-08-30T05:40:34.881Z,16.57
2018-08-30T05:41:44.853Z,16.56
2018-08-30T05:42:54.997Z,16.62
2018-08-30T05:44:04.924Z,16.68
2018-08-30T05:45:15.068Z,16.64
2018-08-30T05:46:25.234Z,16.66
2018-08-30T05:47:35.415Z,16.69
2018-08-30T05:48:45.352Z,16.74
2018-08-30T05:49:55.546Z,16.79
2018-08-30T05:51:05.795Z,16.68
2018-08-30T05:52:16.051Z,16.83
2018-08-30T05:53:26.219Z,16.86
2018-08-30T05:54:35.993Z,16.89
2018-08-30T05:55:46.139Z,16.87
2018-08-30T05:56:56.553Z,16.9
2018-08-30T05:58:07.109Z,16.87
2018-08-30T05:59:17.324Z,16.83
2018-08-30T06:00:27.561Z,16.82
2018-08-30T06:01:37.761Z,16.89
2018-08-30T06:02:48.039Z,16.89
2018-08-30T06:03:58.201Z,16.84
2018-08-30T06:05:08.365Z,16.87
2018-08-30T06:06:18.610Z,16.87
2018-08-30T06:07:28.749Z,16.9
2018-08-30T06:08:38.928Z,16.8
2018-08-30T06:09:49.062Z,16.69
2018-08-30T06:10:59.192Z,16.74
2018-08-30T06:12:09.368Z,16.71
2018-08-30T06:13:19.896Z,16.72
2018-08-30T06:14:30.155Z,16.72
2018-08-30T06:15:40.443Z,16.69
2018-08-30T06:16:50.569Z,16.71
2018-08-30T06:18:00.806Z,16.72
2018-08-30T06:19:10.736Z,16.72
2018-08-30T06:20:20.933Z,16.76
2018-08-30T06:21:30.815Z,16.66
2018-08-30T06:22:40.699Z,16.72
2018-08-30T06:23:50.858Z,16.72
2018-08-30T06:25:00.796Z,16.69
2018-08-30T06:26:10.734Z,16.66
2018-08-30T06:27:20.849Z,16.71
2018-08-30T06:28:31.007Z,16.66
2018-08-30T06:29:40.877Z,16.66
2018-08-30T06:30:51.032Z,16.57
2018-08-30T06:32:01.158Z,16.66
2018-08-30T06:33:11.322Z,16.57
2018-08-30T06:34:21.488Z,16.64
2018-08-30T06:35:31.658Z,16.56
2018-08-30T06:36:41.827Z,16.56
2018-08-30T06:37:52.020Z,16.56
2018-08-30T06:39:02.253Z,16.49
2018-08-30T06:40:12.413Z,16.53
2018-08-30T06:41:22.543Z,16.54
2018-08-30T06:42:32.665Z,16.5
2018-08-30T06:43:42.553Z,16.51
2018-08-30T06:44:52.713Z,16.44
2018-08-30T06:46:02.713Z,16.49
2018-08-30T06:47:12.863Z,16.42
2018-08-30T06:48:23.165Z,16.42
2018-08-30T06:49:33.052Z,16.51
2018-08-30T06:50:43.202Z,16.46
2018-08-30T06:51:53.393Z,16.38
2018-08-30T06:53:03.592Z,16.42
2018-08-30T06:54:13.839Z,16.38
2018-08-30T06:55:24.080Z,16.43
2018-08-30T06:56:34.498Z,16.44
2018-08-30T06:57:44.634Z,16.36
2018-08-30T06:58:54.792Z,16.29
2018-08-30T07:00:04.932Z,16.44
2018-08-30T07:01:15.192Z,16.39
2018-08-30T07:02:25.423Z,16.46
2018-08-30T07:03:35.630Z,16.42
2018-08-30T07:04:45.889Z,16.44
2018-08-30T07:05:56.089Z,16.47
2018-08-30T07:07:05.979Z,16.36
2018-08-30T07:08:16.400Z,16.44
2018-08-30T07:09:27.118Z,16.42
2018-08-30T07:10:37.257Z,16.43
2018-08-30T07:12:19.259Z,16.44
2018-08-30T07:13:29.535Z,16.38
2018-08-30T07:14:40.177Z,16.36
2018-08-30T07:15:50.470Z,16.43
2018-08-30T07:17:00.648Z,16.38
2018-08-30T07:18:10.889Z,16.39
2018-08-30T07:19:21.050Z,16.43
2018-08-30T07:20:31.379Z,16.39
2018-08-30T07:21:41.571Z,16.36
2018-08-30T07:22:51.735Z,16.44
2018-08-30T07:24:01.932Z,16.5
2018-08-30T07:25:11.980Z,16.47
2018-08-30T07:26:22.291Z,16.49
2018-08-30T07:27:32.439Z,16.57
2018-08-30T07:28:42.851Z,16.53
2018-08-30T07:29:53.058Z,16.51
2018-08-30T07:31:03.223Z,16.44
2018-08-30T07:32:13.369Z,16.54
2018-08-30T07:33:23.507Z,16.56
2018-08-30T07:34:33.835Z,16.49
2018-08-30T07:35:44.306Z,16.51
2018-08-30T07:36:54.474Z,16.49
2018-08-30T07:38:04.663Z,16.54
2018-08-30T07:39:14.833Z,16.61
2018-08-30T07:40:24.716Z,16.61
2018-08-30T07:41:35.816Z,16.61
2018-08-30T07:42:46.093Z,16.51
2018-08-30T07:43:56.002Z,16.65
2018-08-30T07:45:05.892Z,16.62
2018-08-30T07:46:16.134Z,16.64
2018-08-30T07:47:26.598Z,16.64
2018-08-30T07:48:36.324Z,16.61
2018-08-30T07:49:46.618Z,16.62
2018-08-30T07:50:56.706Z,16.71
2018-08-30T07:52:06.776Z,16.62
2018-08-30T07:53:16.891Z,16.68
2018-08-30T07:54:27.212Z,16.53
2018-08-30T07:55:37.230Z,16.59
2018-08-30T07:56:47.375Z,16.56
2018-08-30T07:57:57.546Z,16.68
2018-08-30T07:59:07.424Z,16.64
2018-08-30T08:00:17.542Z,16.79
2018-08-30T08:01:27.771Z,16.75
2018-08-30T08:02:37.683Z,16.72
2018-08-30T08:03:49.101Z,16.76
2018-08-30T08:04:59.291Z,16.76
2018-08-30T08:06:09.504Z,16.74
2018-08-30T08:07:20.065Z,16.82
2018-08-30T08:08:30.488Z,16.9
2018-08-30T08:09:41.666Z,16.91
2018-08-30T08:10:52.002Z,16.91
2018-08-30T08:12:02.322Z,16.99
2018-08-30T08:13:12.851Z,17.06
2018-08-30T08:14:23.039Z,17.05
2018-08-30T08:15:33.290Z,17.06
2018-08-30T08:16:43.491Z,17.06
2018-08-30T08:17:53.748Z,17.09
2018-08-30T08:19:04.159Z,17.12
2018-08-30T08:20:14.893Z,17.12
2018-08-30T08:21:25.018Z,17.17
2018-08-30T08:22:35.150Z,17.14
2018-08-30T08:23:45.314Z,17.21
2018-08-30T08:24:55.749Z,17.12
2018-08-30T08:26:05.897Z,17.3
2018-08-30T08:27:16.043Z,17.3
2018-08-30T08:28:25.950Z,17.36
2018-08-30T08:29:36.085Z,17.28
2018-08-30T08:30:46.264Z,17.3
2018-08-30T08:31:56.454Z,17.21
2018-08-30T08:33:06.652Z,17.32
2018-08-30T08:34:16.789Z,17.24
2018-08-30T08:35:27.005Z,17.28
2018-08-30T08:36:37.216Z,17.3
2018-08-30T08:37:48.371Z,17.27
2018-08-30T08:38:58.244Z,17.31
2018-08-30T08:40:08.164Z,17.19
2018-08-30T08:41:18.319Z,17.17
2018-08-30T08:42:28.233Z,17.3
2018-08-30T08:43:38.361Z,17.21
2018-08-30T08:44:48.529Z,17.17
2018-08-30T08:45:58.302Z,17.11
2018-08-30T08:47:08.424Z,17.08
2018-08-30T08:48:19.552Z,17.17
2018-08-30T08:49:29.426Z,17.11
2018-08-30T08:50:39.556Z,17.12
2018-08-30T08:51:49.547Z,17.14
2018-08-30T08:52:59.373Z,17.08
2018-08-30T08:54:08.625Z,17.05
2018-08-30T08:55:18.805Z,17.04
2018-08-30T08:56:29.099Z,17.04
2018-08-30T08:57:39.305Z,17.06
2018-08-30T08:58:49.771Z,17.06
2018-08-30T09:00:00.395Z,17.06
2018-08-30T09:01:10.573Z,17.05
2018-08-30T09:02:20.754Z,17.09
2018-08-30T09:03:30.905Z,17.02
2018-08-30T09:04:41.083Z,17.06
2018-08-30T09:05:50.968Z,17.14
2018-08-30T09:07:00.929Z,16.98
2018-08-30T09:08:10.663Z,17.05
2018-08-30T09:09:20.805Z,17.05
2018-08-30T09:10:30.736Z,17.05
2018-08-30T09:11:40.632Z,17.06
2018-08-30T09:12:50.421Z,17.08
2018-08-30T09:14:00.574Z,17.12
2018-08-30T09:15:10.737Z,17.08
2018-08-30T09:16:20.997Z,17.12
2018-08-30T09:17:31.152Z,17.08
2018-08-30T09:18:41.318Z,17.17
2018-08-30T09:19:51.555Z,17.2
2018-08-30T09:21:01.713Z,17.09
2018-08-30T09:22:11.861Z,17.2
2018-08-30T09:23:21.758Z,17.12
2018-08-30T09:24:31.894Z,17.08
2018-08-30T09:25:42.064Z,17.02
2018-08-30T09:26:52.671Z,16.96
2018-08-30T09:28:03.177Z,16.87
2018-08-30T09:29:13.380Z,16.75
2018-08-30T09:30:23.576Z,16.75
2018-08-30T09:31:33.784Z,16.71
2018-08-30T09:32:44.108Z,16.75
2018-08-30T09:33:54.510Z,16.76
2018-08-30T09:35:04.953Z,16.71
2018-08-30T09:36:15.181Z,16.69
2018-08-30T09:37:25.373Z,16.68
2018-08-30T09:38:35.619Z,16.65
2018-08-30T09:39:45.794Z,16.64
2018-08-30T09:40:55.948Z,16.68
2018-08-30T09:42:06.129Z,16.71
2018-08-30T09:43:16.265Z,16.61
2018-08-30T09:44:26.391Z,16.61
2018-08-30T09:45:36.268Z,16.56
2018-08-30T09:46:46.394Z,16.56
2018-08-30T09:47:56.543Z,16.5
2018-08-30T09:49:06.462Z,16.59
2018-08-30T09:50:16.341Z,16.51
2018-08-30T09:51:26.633Z,16.56
2018-08-30T09:52:36.502Z,16.62
2018-08-30T09:53:46.364Z,16.69
2018-08-30T09:54:56.280Z,16.71
2018-08-30T09:56:06.217Z,16.69
2018-08-30T09:57:16.025Z,16.74
2018-08-30T09:58:26.362Z,16.74
2018-08-30T09:59:36.513Z,16.74
2018-08-30T10:00:46.307Z,16.86
2018-08-30T10:01:56.509Z,16.74
2018-08-30T10:03:06.700Z,16.79
2018-08-30T10:04:16.838Z,16.68
2018-08-30T10:05:26.966Z,16.75
2018-08-30T10:06:37.124Z,16.74
2018-08-30T10:07:47.497Z,16.75
2018-08-30T10:08:57.618Z,16.69
2018-08-30T10:10:07.808Z,16.83
2018-08-30T10:11:18.908Z,16.87
2018-08-30T10:12:29.106Z,16.93
2018-08-30T10:13:39.334Z,17.04
2018-08-30T10:14:49.405Z,17.08
2018-08-30T10:16:00.018Z,17.06
2018-08-30T10:17:09.963Z,17.14
2018-08-30T10:18:20.153Z,17.05
2018-08-30T10:19:30.320Z,17.06
2018-08-30T10:20:41.306Z,17.21
2018-08-30T10:21:51.457Z,17.19
2018-08-30T10:23:00.819Z,17.32
2018-08-30T10:24:11.047Z,17.43
2018-08-30T10:25:21.295Z,17.54
2018-08-30T10:26:31.694Z,17.54
2018-08-30T10:27:41.965Z,17.54
2018-08-30T10:28:52.163Z,17.5
2018-08-30T10:30:02.305Z,17.64
2018-08-30T10:31:12.460Z,17.75
2018-08-30T10:32:22.372Z,17.73
2018-08-30T10:33:32.246Z,17.61
2018-08-30T10:34:42.395Z,17.61
2018-08-30T10:35:51.936Z,17.5
2018-08-30T10:37:02.289Z,17.46
2018-08-30T10:38:12.354Z,17.45
2018-08-30T10:39:22.495Z,17.4
2018-08-30T10:40:32.641Z,17.39
2018-08-30T10:41:42.810Z,17.3
2018-08-30T10:42:53.053Z,17.32
2018-08-30T10:44:03.392Z,17.31
2018-08-30T10:45:13.565Z,17.21
2018-08-30T10:46:23.702Z,17.19
2018-08-30T10:47:33.853Z,17.28
2018-08-30T10:48:44.027Z,17.21
2018-08-30T10:49:54.394Z,17.24
2018-08-30T10:51:04.813Z,17.19
2018-08-30T10:52:14.969Z,17.2
2018-08-30T10:53:24.850Z,17.09
2018-08-30T10:54:35.105Z,17.11
2018-08-30T10:55:45.040Z,17.05
2018-08-30T10:56:56.149Z,17.06
2018-08-30T10:58:06.150Z,17.04
2018-08-30T10:59:16.403Z,17.08
2018-08-30T11:00:26.540Z,17.11
2018-08-30T11:01:36.667Z,17.12
2018-08-30T11:02:46.859Z,17.09
2018-08-30T11:03:57.165Z,17.12
2018-08-30T11:05:07.321Z,17.06
2018-08-30T11:06:17.518Z,17.11
2018-08-30T11:07:27.641Z,17.16
2018-08-30T11:08:37.874Z,17.27
2018-08-30T11:09:48.103Z,17.3
2018-08-30T11:10:58.013Z,17.27
2018-08-30T11:12:08.170Z,17.38
2018-08-30T11:13:18.417Z,17.42
2018-08-30T11:14:28.626Z,17.62
2018-08-30T11:15:38.529Z,17.77
2018-08-30T11:16:48.666Z,17.94
2018-08-30T11:17:58.578Z,17.98
2018-08-30T11:19:08.623Z,18.15
2018-08-30T11:20:18.816Z,18.26
2018-08-30T11:21:29.014Z,18.41
2018-08-30T11:22:38.910Z,18.4
2018-08-30T11:23:49.050Z,18.38
2018-08-30T11:24:59.212Z,18.28
2018-08-30T11:26:09.363Z,18.3
2018-08-30T11:27:19.255Z,18.4
2018-08-30T11:28:29.427Z,18.28
2018-08-30T11:29:39.572Z,18.26
2018-08-30T11:30:49.741Z,18.26
2018-08-30T11:31:59.953Z,18.15
2018-08-30T11:33:10.152Z,18.16
2018-08-30T11:34:20.411Z,18.16
2018-08-30T11:35:31.597Z,18.05
2018-08-30T11:36:41.736Z,18.07
2018-08-30T11:37:52.193Z,18.15
2018-08-30T11:39:02.370Z,18.05
2018-08-30T11:40:12.495Z,18.19
2018-08-30T11:41:22.674Z,18.17
2018-08-30T11:42:33.182Z,18.26
2018-08-30T11:43:43.495Z,18.37
2018-08-30T11:44:53.772Z,18.41
2018-08-30T11:46:03.945Z,18.37
2018-08-30T11:47:14.200Z,18.38
2018-08-30T11:48:24.364Z,18.38
2018-08-30T11:49:34.524Z,18.31
2018-08-30T11:50:44.495Z,18.41
2018-08-30T11:51:54.732Z,18.42
2018-08-30T11:53:04.904Z,18.5
2018-08-30T11:54:15.173Z,18.5
2018-08-30T11:55:25.766Z,18.56
2018-08-30T11:56:35.944Z,18.57
2018-08-30T11:57:46.179Z,18.5
2018-08-30T11:58:56.375Z,18.63
2018-08-30T12:00:06.508Z,18.63
2018-08-30T12:01:16.444Z,18.71
2018-08-30T12:02:26.684Z,18.94
2018-08-30T12:03:37.152Z,19.21
2018-08-30T12:04:47.306Z,19.35
2018-08-30T12:05:57.242Z,19.37
2018-08-30T12:07:08.057Z,19.55
2018-08-30T12:08:18.351Z,19.45
2018-08-30T12:09:28.772Z,19.5
2018-08-30T12:10:39.144Z,19.53
2018-08-30T12:11:49.667Z,19.52
2018-08-30T12:12:59.803Z,19.5
2018-08-30T12:14:10.205Z,19.45
2018-08-30T12:15:20.412Z,19.6
2018-08-30T12:16:30.360Z,19.55
2018-08-30T12:17:40.543Z,19.52
2018-08-30T12:18:50.933Z,19.6
2018-08-30T12:20:01.525Z,19.63
2018-08-30T12:21:11.668Z,19.85
2018-08-30T12:22:21.540Z,19.98
2018-08-30T12:23:31.724Z,20.17
2018-08-30T12:24:41.896Z,20.2
2018-08-30T12:25:52.032Z,20.23
2018-08-30T12:27:02.262Z,20.39
2018-08-30T12:28:13.135Z,20.56
2018-08-30T12:29:23.430Z,20.58
2018-08-30T12:30:33.857Z,20.51
2018-08-30T12:31:44.392Z,20.48
2018-08-30T12:32:54.986Z,20.39
2018-08-30T12:34:05.577Z,20.21
2018-08-30T12:35:16.800Z,20.07
2018-08-30T12:36:27.383Z,19.92
2018-08-30T12:37:37.778Z,19.71
2018-08-30T12:38:47.806Z,19.65
2018-08-30T12:39:58.636Z,19.55
2018-08-30T12:41:09.809Z,19.43
2018-08-30T12:42:20.525Z,19.27
2018-08-30T12:43:31.678Z,19.25
2018-08-30T12:44:42.392Z,19.21
2018-08-30T12:45:52.774Z,19.13
2018-08-30T12:47:03.108Z,19.08
2018-08-30T12:48:12.873Z,18.98
2018-08-30T12:49:23.267Z,19.05
2018-08-30T12:50:34.295Z,19.05
2018-08-30T12:51:45.927Z,19.15
2018-08-30T12:52:56.792Z,19.24
2018-08-30T12:54:07.966Z,19.39
2018-08-30T12:55:18.999Z,19.55
2018-08-30T12:56:30.149Z,19.68
2018-08-30T12:57:41.310Z,19.73
2018-08-30T12:58:52.536Z,19.71
2018-08-30T13:00:04.429Z,19.74
2018-08-30T13:01:15.891Z,19.74
2018-08-30T13:02:27.372Z,19.73
2018-08-30T13:03:39.407Z,19.63
2018-08-30T13:04:50.670Z,19.58
2018-08-30T13:06:02.506Z,19.61
2018-08-30T13:07:15.240Z,19.55
2018-08-30T13:08:27.675Z,19.4
2018-08-30T13:09:39.358Z,19.31
2018-08-30T13:10:52.034Z,19.19
2018-08-30T13:12:05.549Z,19.12
2018-08-30T13:13:18.590Z,19.12
2018-08-30T13:14:30.259Z,19.1
2018-08-30T13:15:42.985Z,18.97
2018-08-30T13:16:54.537Z,18.94
2018-08-30T13:18:06.859Z,18.87
2018-08-30T13:19:19.567Z,18.73
2018-08-30T13:20:32.403Z,18.67
2018-08-30T13:21:45.242Z,18.63
2018-08-30T13:22:57.441Z,18.53
2018-08-30T13:24:10.370Z,18.5
2018-08-30T13:25:23.305Z,18.53
2018-08-30T13:26:36.048Z,18.49
2018-08-30T13:27:49.041Z,18.49
2018-08-30T13:29:01.739Z,18.41
2018-08-30T13:30:14.960Z,18.41
2018-08-30T13:31:28.418Z,18.35
2018-08-30T13:32:42.814Z,18.31
2018-08-30T13:33:54.706Z,18.32
2018-08-30T13:35:08.592Z,18.23
2018-08-30T13:36:22.063Z,18.3
2018-08-30T13:37:35.914Z,18.32
2018-08-30T13:38:49.347Z,18.42
2018-08-30T13:40:03.698Z,18.44
2018-08-30T13:41:17.572Z,18.49
2018-08-30T13:42:31.228Z,18.63
2018-08-30T13:43:44.751Z,18.71
2018-08-30T13:44:57.762Z,18.91
2018-08-30T13:46:10.850Z,18.98
2018-08-30T13:47:23.620Z,18.94
2018-08-30T13:48:36.061Z,18.95
2018-08-30T13:49:48.015Z,18.98
2018-08-30T13:51:01.031Z,18.95
2018-08-30T13:52:14.332Z,18.93
2018-08-30T13:53:28.231Z,18.97
2018-08-30T13:54:41.756Z,18.78
2018-08-30T13:55:55.417Z,18.75
2018-08-30T13:57:09.374Z,18.65
2018-08-30T13:58:23.451Z,18.55
2018-08-30T13:59:38.562Z,18.55
2018-08-30T14:00:53.958Z,18.52
2018-08-30T14:02:06.915Z,18.4
2018-08-30T14:03:19.942Z,18.47
2018-08-30T14:04:33.070Z,18.47
2018-08-30T14:05:46.071Z,18.4
2018-08-30T14:06:59.568Z,18.38
2018-08-30T14:08:11.647Z,18.4
2018-08-30T14:09:24.867Z,18.37
2018-08-30T14:10:37.321Z,18.31
2018-08-30T14:11:50.676Z,18.3
2018-08-30T14:13:04.116Z,18.15
2018-08-30T14:14:16.076Z,18.19
2018-08-30T14:15:30.007Z,18.15
2018-08-30T14:16:41.348Z,18.19
2018-08-30T14:17:51.810Z,18.12
2018-08-30T14:19:02.488Z,18.13
2018-08-30T14:20:12.824Z,18.12
2018-08-30T14:21:23.021Z,18.05
2018-08-30T14:22:33.323Z,18.04
2018-08-30T14:23:43.546Z,18.02
2018-08-30T14:24:54.026Z,17.94
2018-08-30T14:26:04.296Z,17.94
2018-08-30T14:27:14.640Z,17.8
2018-08-30T14:28:24.929Z,17.89
2018-08-30T14:29:35.422Z,17.86
2018-08-30T14:30:45.662Z,17.72
2018-08-30T14:31:55.866Z,17.7
2018-08-30T14:33:06.674Z,17.72
2018-08-30T14:34:16.933Z,17.61
2018-08-30T14:35:27.348Z,17.68
2018-08-30T14:36:37.588Z,17.68
2018-08-30T14:37:48.099Z,17.64
2018-08-30T14:38:59.050Z,17.62
2018-08-30T14:40:09.579Z,17.55
2018-08-30T14:41:21.224Z,17.61
2018-08-30T14:42:31.793Z,17.55
2018-08-30T14:43:42.114Z,17.49
2018-08-30T14:44:52.553Z,17.42
2018-08-30T14:46:03.128Z,17.36
2018-08-30T14:47:13.426Z,17.27
2018-08-30T14:48:24.253Z,17.27
2018-08-30T14:49:34.406Z,17.31
2018-08-30T14:50:44.657Z,17.24
2018-08-30T14:51:54.871Z,17.23
2018-08-30T14:53:05.237Z,17.2
2018-08-30T14:54:15.822Z,17.23
2018-08-30T14:55:26.239Z,17.27
2018-08-30T14:56:36.531Z,17.27
2018-08-30T14:57:46.830Z,17.28
2018-08-30T14:58:56.994Z,17.28
2018-08-30T15:00:07.072Z,17.27
2018-08-30T15:01:17.503Z,17.27
2018-08-30T15:02:27.775Z,17.28
2018-08-30T15:03:38.066Z,17.27
2018-08-30T15:04:48.098Z,17.31
2018-08-30T15:05:58.980Z,17.24
2018-08-30T15:07:09.677Z,17.3
2018-08-30T15:08:19.653Z,17.23
2018-08-30T15:09:29.694Z,17.27
2018-08-30T15:10:39.852Z,17.27